createdAt,value
2023-04-28T05:03:15.650Z,14.72
2023-04-28T05:04:17.168Z,8.30
2023-04-28T05:05:21.074Z,9.04
2023-04-28T05:06:16.477Z,8.44
2023-04-28T05:07:16.467Z,7.64
2023-04-28T05:08:16.476Z,7.40
2023-04-28T05:09:16.450Z,6.21
2023-04-28T05:10:16.449Z,6.80
2023-04-28T05:11:16.452Z,6.87
2023-04-28T05:12:16.456Z,7.41
2023-04-28T05:13:15.457Z,6.94
2023-04-28T05:14:16.623Z,6.72
2023-04-28T05:15:16.428Z,6.62
2023-04-28T05:16:15.408Z,6.30
2023-04-28T05:17:16.669Z,6.50
2023-04-28T05:18:16.413Z,6.26
2023-04-28T05:19:15.481Z,6.03
2023-04-28T05:20:16.364Z,6.49
2023-04-28T05:21:16.357Z,6.89
2023-04-28T05:22:16.350Z,6.32
2023-04-28T05:23:15.351Z,6.68
2023-04-28T05:24:16.601Z,5.90
2023-04-28T05:25:15.372Z,6.92
2023-04-28T05:26:16.347Z,5.94
2023-04-28T05:27:15.326Z,6.53
2023-04-28T05:28:16.358Z,6.75
2023-04-28T05:29:15.297Z,5.86
2023-04-28T05:30:15.303Z,5.81
2023-04-28T05:31:16.335Z,5.64
2023-04-28T05:32:15.431Z,6.79
2023-04-28T05:33:15.294Z,6.11
2023-04-28T05:34:16.810Z,6.67
2023-04-28T05:35:16.284Z,5.97
2023-04-28T05:36:16.252Z,7.01
2023-04-28T05:37:15.284Z,7.16
2023-04-28T05:38:16.234Z,7.27
2023-04-28T05:39:16.278Z,7.42
2023-04-28T05:40:15.305Z,8.20
2023-04-28T05:41:15.359Z,8.28
2023-04-28T05:42:16.362Z,8.67
2023-04-28T05:43:16.404Z,8.81
2023-04-28T05:44:16.608Z,8.53
2023-04-28T05:45:16.437Z,7.12
2023-04-28T05:46:29.054Z,7.55
2023-04-28T05:47:16.541Z,7.24
2023-04-28T05:48:16.585Z,7.52
2023-04-28T05:49:16.505Z,7.88
2023-04-28T05:50:16.518Z,7.06
2023-04-28T05:51:15.492Z,7.48
2023-04-28T05:52:16.469Z,7.38
2023-04-28T05:53:16.478Z,6.89
2023-04-28T05:54:15.641Z,7.66
2023-04-28T05:55:16.471Z,6.70
2023-04-28T05:56:16.465Z,7.56
2023-04-28T05:57:16.453Z,7.05
2023-04-28T05:58:15.447Z,6.81
2023-04-28T05:59:16.995Z,6.75
2023-04-28T06:00:16.444Z,6.48
2023-04-28T06:01:15.394Z,6.57
2023-04-28T06:02:16.417Z,7.13
2023-04-28T06:03:15.505Z,6.87
2023-04-28T06:04:16.721Z,6.98
2023-04-28T06:05:16.713Z,6.23
2023-04-28T06:06:16.550Z,7.16
2023-04-28T06:07:16.448Z,7.11
2023-04-28T06:08:16.469Z,7.70
2023-04-28T06:09:16.493Z,7.26
2023-04-28T06:10:15.367Z,7.80
2023-04-28T06:11:16.385Z,7.47
2023-04-28T06:12:16.429Z,7.76
2023-04-28T06:13:16.333Z,8.19
2023-04-28T06:14:16.614Z,8.18
2023-04-28T06:15:15.325Z,8.10
2023-04-28T06:16:16.352Z,7.46
2023-04-28T06:17:15.306Z,7.80
2023-04-28T06:18:16.313Z,7.53
2023-04-28T06:19:16.319Z,7.77
2023-04-28T06:20:16.302Z,5.99
2023-04-28T06:21:15.310Z,7.61
2023-04-28T06:22:16.276Z,7.26
2023-04-28T06:23:16.315Z,8.26
2023-04-28T06:24:16.492Z,7.50
2023-04-28T06:25:16.345Z,7.19
2023-04-28T06:26:17.990Z,7.62
2023-04-28T06:27:15.358Z,6.73
2023-04-28T06:28:15.356Z,6.49
2023-04-28T06:29:16.337Z,6.99
2023-04-28T06:30:16.386Z,7.11
2023-04-28T06:31:16.382Z,6.41
2023-04-28T06:32:15.317Z,6.76
2023-04-28T06:33:16.331Z,7.31
2023-04-28T06:34:15.468Z,7.71
2023-04-28T06:35:16.348Z,7.09
2023-04-28T06:36:15.321Z,7.02
2023-04-28T06:37:16.288Z,6.91
2023-04-28T06:38:15.293Z,6.46
2023-04-28T06:39:16.356Z,5.99
2023-04-28T06:40:16.266Z,6.86
2023-04-28T06:41:16.269Z,6.64
2023-04-28T06:42:16.285Z,7.74
2023-04-28T06:43:16.246Z,7.82
2023-04-28T06:44:16.433Z,7.63
2023-04-28T06:45:16.239Z,7.36
2023-04-28T06:46:15.282Z,7.89
2023-04-28T06:47:16.227Z,8.00
2023-04-28T06:48:16.237Z,7.98
2023-04-28T06:49:16.227Z,8.63
2023-04-28T06:50:16.210Z,8.87
2023-04-28T06:51:16.190Z,8.98
2023-04-28T06:52:15.166Z,7.30
2023-04-28T06:53:15.199Z,7.11
2023-04-28T06:54:16.582Z,7.10
2023-04-28T06:55:16.170Z,7.89
2023-04-28T06:56:15.155Z,7.00
2023-04-28T06:57:16.171Z,6.69
2023-04-28T06:58:16.128Z,7.27
2023-04-28T06:59:16.129Z,6.92
2023-04-28T07:00:15.154Z,6.75
2023-04-28T07:01:15.169Z,6.79
2023-04-28T07:02:16.216Z,6.80
2023-04-28T07:03:15.159Z,6.20
2023-04-28T07:04:16.552Z,7.33
2023-04-28T07:05:16.358Z,6.74
2023-04-28T07:06:15.122Z,6.88
2023-04-28T07:07:15.090Z,6.68
2023-04-28T07:08:16.062Z,7.64
2023-04-28T07:09:15.058Z,7.09
2023-04-28T07:10:16.066Z,7.84
2023-04-28T07:11:16.073Z,7.10
2023-04-28T07:12:15.270Z,7.73
2023-04-28T07:13:16.137Z,6.99
2023-04-28T07:14:16.310Z,7.56
2023-04-28T07:15:16.131Z,7.02
2023-04-28T07:16:15.180Z,7.37
2023-04-28T07:17:16.197Z,6.54
2023-04-28T07:18:15.423Z,6.97
2023-04-28T07:19:16.259Z,6.49
2023-04-28T07:20:16.254Z,6.90
2023-04-28T07:21:15.305Z,6.96
2023-04-28T07:22:16.328Z,6.62
2023-04-28T07:23:16.364Z,6.97
2023-04-28T07:24:16.541Z,7.60
2023-04-28T07:25:16.427Z,6.96
2023-04-28T07:26:15.533Z,7.54
2023-04-28T07:27:16.467Z,7.59
2023-04-28T07:28:15.474Z,7.80
2023-04-28T07:29:16.463Z,7.74
2023-04-28T07:30:27.319Z,8.09
2023-04-28T07:31:16.484Z,7.22
2023-04-28T07:32:15.680Z,7.13
2023-04-28T07:33:16.490Z,6.72
2023-04-28T07:34:16.778Z,6.92
2023-04-28T07:35:16.459Z,7.35
2023-04-28T07:36:16.466Z,7.46
2023-04-28T07:37:15.445Z,6.41
2023-04-28T07:38:16.436Z,6.35
2023-04-28T07:39:16.483Z,5.80
2023-04-28T07:40:16.473Z,5.68
2023-04-28T07:41:16.404Z,5.37
2023-04-28T07:42:16.468Z,4.98
2023-04-28T07:43:15.410Z,5.17
2023-04-28T07:44:15.688Z,6.44
2023-04-28T07:45:15.381Z,6.22
2023-04-28T07:46:16.435Z,6.04
2023-04-28T07:47:16.413Z,6.78
2023-04-28T07:48:15.428Z,6.38
2023-04-28T07:49:15.377Z,6.83
2023-04-28T07:50:15.398Z,6.86
2023-04-28T07:51:16.424Z,6.26
2023-04-28T07:52:16.530Z,5.86
2023-04-28T07:53:18.146Z,6.15
2023-04-28T07:54:17.114Z,5.75
2023-04-28T07:55:16.764Z,5.13
2023-04-28T07:56:15.953Z,5.68
2023-04-28T07:57:15.796Z,5.73
2023-04-28T07:58:16.833Z,6.15
2023-04-28T07:59:16.908Z,5.48
2023-04-28T08:00:16.955Z,6.00
2023-04-28T08:01:16.951Z,5.50
2023-04-28T08:02:16.997Z,5.76
2023-04-28T08:03:16.258Z,6.33
2023-04-28T08:04:19.345Z,5.55
2023-04-28T08:05:17.326Z,5.46
2023-04-28T08:06:17.049Z,5.86
2023-04-28T08:07:16.963Z,5.12
2023-04-28T08:08:16.964Z,4.99
2023-04-28T08:09:16.944Z,5.45
2023-04-28T08:10:16.959Z,5.61
2023-04-28T08:12:35.097Z,4.94
2023-04-28T08:13:36.048Z,5.63
2023-04-28T08:14:36.292Z,5.90
2023-04-28T08:15:36.314Z,5.60
2023-04-28T08:16:35.901Z,5.47
2023-04-28T08:17:34.971Z,5.58
2023-04-28T08:18:34.888Z,5.82
2023-04-28T08:19:34.960Z,5.18
2023-04-28T08:20:34.929Z,5.42
2023-04-28T08:21:35.851Z,5.59
2023-04-28T08:22:35.844Z,5.27
2023-04-28T08:23:35.848Z,5.06
2023-04-28T08:24:35.936Z,4.67
2023-04-28T08:25:36.165Z,5.31
2023-04-28T08:26:35.846Z,5.79
2023-04-28T08:27:35.822Z,6.03
2023-04-28T08:28:35.827Z,5.80
2023-04-28T08:29:35.979Z,5.72
2023-04-28T08:30:34.822Z,5.43
2023-04-28T08:31:35.820Z,5.31
2023-04-28T08:32:35.833Z,5.07
2023-04-28T08:33:34.787Z,4.63
2023-04-28T08:34:34.765Z,4.99
2023-04-28T08:35:34.771Z,5.25
2023-04-28T08:36:35.769Z,6.54
2023-04-28T08:37:34.735Z,5.56
2023-04-28T08:38:35.741Z,5.48
2023-04-28T08:39:34.700Z,6.23
2023-04-28T08:40:34.725Z,6.42
2023-04-28T08:42:54.854Z,5.51
2023-04-28T08:45:38.224Z,7.89
2023-04-28T08:46:38.649Z,6.07
2023-04-28T08:50:24.310Z,5.96
2023-04-28T08:51:24.344Z,8.98
2023-04-28T08:52:25.482Z,6.39
2023-04-28T08:53:25.353Z,5.84
2023-04-28T08:54:29.698Z,7.80
2023-04-28T08:55:24.288Z,6.45
2023-04-28T08:56:25.222Z,5.45
2023-04-28T08:57:24.314Z,5.84
2023-04-28T08:58:25.218Z,5.69
2023-04-28T08:59:24.213Z,5.66
2023-04-28T09:00:25.223Z,5.31
2023-04-28T09:01:25.238Z,4.96
2023-04-28T09:02:25.565Z,5.38
2023-04-28T09:03:25.523Z,5.96
2023-04-28T09:04:24.530Z,6.06
2023-04-28T09:05:25.436Z,5.47
2023-04-28T09:06:25.227Z,5.73
2023-04-28T09:07:26.376Z,5.16
2023-04-28T09:08:24.352Z,4.92
2023-04-28T09:09:25.307Z,5.08
2023-04-28T09:10:24.497Z,5.24
2023-04-28T09:11:25.124Z,5.59
2023-04-28T09:12:25.697Z,5.50
2023-04-28T09:13:24.197Z,4.71
2023-04-28T09:14:24.204Z,5.30
2023-04-28T09:16:43.346Z,6.32
2023-04-28T09:17:44.263Z,5.08
2023-04-28T09:18:44.222Z,5.17
2023-04-28T09:21:02.801Z,4.60
2023-04-28T09:23:28.360Z,8.29
2023-04-28T09:24:23.770Z,4.87
2023-04-28T09:25:23.828Z,4.64
2023-04-28T09:26:23.767Z,4.85
2023-04-28T09:27:23.808Z,4.84
2023-04-28T09:28:23.751Z,5.41
2023-04-28T09:29:23.755Z,5.16
2023-04-28T09:30:24.086Z,4.89
2023-04-28T09:31:24.181Z,4.60
2023-04-28T09:33:43.261Z,4.59
2023-04-28T09:34:43.722Z,5.21
2023-04-28T09:37:01.710Z,4.28
2023-04-28T09:38:02.368Z,5.07
2023-04-28T09:39:02.750Z,5.05
2023-04-28T09:40:01.541Z,4.96
2023-04-28T09:41:02.757Z,5.11
2023-04-28T09:42:01.360Z,5.36
2023-04-28T09:43:08.889Z,4.43
2023-04-28T09:44:02.376Z,5.21
2023-04-28T09:45:02.331Z,4.80
2023-04-28T09:46:02.368Z,4.70
2023-04-28T09:47:02.382Z,4.47
2023-04-28T09:48:01.329Z,3.65
2023-04-28T09:49:01.340Z,4.59
2023-04-28T09:50:02.327Z,4.58
2023-04-28T09:51:02.326Z,4.28
2023-04-28T09:52:02.294Z,4.16
2023-04-28T09:53:02.354Z,4.22
2023-04-28T09:54:02.275Z,4.61
2023-04-28T09:55:01.286Z,5.19
2023-04-28T09:56:02.280Z,5.95
2023-04-28T09:57:02.333Z,6.55
2023-04-28T09:58:01.254Z,5.26
2023-04-28T09:59:01.264Z,5.69
2023-04-28T10:00:02.269Z,4.71
2023-04-28T10:01:01.277Z,5.15
2023-04-28T10:02:11.178Z,5.39
2023-04-28T10:03:02.373Z,4.82
2023-04-28T10:04:02.254Z,5.08
2023-04-28T10:05:01.501Z,5.73
2023-04-28T10:06:02.223Z,6.61
2023-04-28T10:07:02.195Z,5.69
2023-04-28T10:08:02.595Z,4.85
2023-04-28T10:09:02.501Z,6.28
2023-04-28T10:10:01.185Z,5.55
2023-04-28T10:11:01.181Z,5.41
2023-04-28T10:12:01.162Z,4.24
2023-04-28T10:13:02.167Z,4.29
2023-04-28T10:14:02.141Z,4.60
2023-04-28T10:15:02.179Z,3.91
2023-04-28T10:16:01.149Z,4.49
2023-04-28T10:17:02.123Z,5.44
2023-04-28T10:18:01.172Z,4.94
2023-04-28T10:19:02.174Z,5.29
2023-04-28T10:20:01.155Z,5.25
2023-04-28T10:21:02.116Z,5.09
2023-04-28T10:22:01.093Z,5.10
2023-04-28T10:23:01.089Z,4.94
2023-04-28T10:24:02.088Z,4.22
2023-04-28T10:25:01.075Z,4.67
2023-04-28T10:26:02.120Z,3.38
2023-04-28T10:27:02.057Z,3.46
2023-04-28T10:28:02.052Z,3.58
2023-04-28T10:29:02.040Z,3.98
2023-04-28T10:30:01.032Z,3.64
2023-04-28T10:31:02.089Z,3.66
2023-04-28T10:32:02.080Z,2.63
2023-04-28T10:33:02.096Z,3.19
2023-04-28T10:34:02.012Z,3.03
2023-04-28T10:35:01.005Z,2.37
2023-04-28T10:36:00.998Z,2.42
2023-04-28T10:37:02.051Z,2.98
2023-04-28T10:38:02.074Z,2.33
2023-04-28T10:39:01.048Z,2.74
2023-04-28T10:40:02.015Z,2.61
2023-04-28T10:41:02.101Z,3.27
2023-04-28T10:42:01.107Z,2.61
2023-04-28T10:43:02.123Z,2.76
2023-04-28T10:44:01.192Z,3.13
2023-04-28T10:45:02.134Z,4.19
2023-04-28T10:46:01.371Z,4.43
2023-04-28T10:47:01.264Z,4.44
2023-04-28T10:48:02.309Z,6.07
2023-04-28T10:49:02.390Z,5.44
2023-04-28T10:50:02.363Z,5.21
2023-04-28T10:51:02.672Z,5.63
2023-04-28T10:52:02.407Z,5.51
2023-04-28T10:53:01.451Z,4.45
2023-04-28T10:54:02.485Z,4.37
2023-04-28T10:55:09.596Z,3.91
2023-04-28T10:56:02.571Z,3.23
2023-04-28T10:59:40.266Z,4.00
2023-04-28T11:03:19.305Z,5.81
2023-04-28T11:05:38.706Z,8.72
2023-04-28T11:08:00.730Z,4.36
2023-04-28T11:08:58.109Z,4.16
2023-04-28T11:09:57.566Z,5.34
2023-04-28T11:10:57.235Z,4.51
2023-04-28T11:11:57.175Z,3.90
2023-04-28T11:12:58.121Z,4.59
2023-04-28T11:15:20.253Z,6.56
2023-04-28T11:17:39.416Z,3.16
2023-04-28T11:19:58.696Z,4.36
2023-04-28T11:20:59.668Z,4.76
2023-04-28T11:23:18.075Z,3.75
2023-04-28T11:25:37.453Z,3.93
2023-04-28T11:27:56.685Z,3.97
2023-04-28T11:30:15.701Z,4.07
2023-04-28T11:31:16.038Z,3.65
2023-04-28T11:32:17.285Z,3.33
2023-04-28T11:34:35.112Z,2.72
2023-04-28T11:36:55.095Z,6.93
2023-04-28T11:39:14.176Z,3.71
2023-04-28T11:41:32.866Z,3.18
2023-04-28T11:42:32.742Z,3.61
2023-04-28T11:44:52.408Z,3.58
2023-04-28T11:45:53.485Z,3.49
2023-04-28T11:46:52.833Z,2.54
2023-04-28T11:49:11.095Z,2.76
2023-04-28T11:50:12.279Z,3.42
2023-04-28T11:51:12.040Z,3.68
2023-04-28T11:52:10.796Z,4.13
2023-04-28T11:53:11.824Z,3.50
2023-04-28T11:54:11.670Z,3.72
2023-04-28T11:56:30.392Z,3.33
2023-04-28T11:57:31.756Z,2.92
2023-04-28T11:58:31.577Z,4.20
2023-04-28T11:59:31.533Z,3.49
2023-04-28T12:00:31.303Z,4.46
2023-04-28T12:01:31.224Z,3.51
2023-04-28T12:02:30.410Z,4.39
2023-04-28T12:04:49.932Z,3.47
2023-04-28T12:05:50.940Z,3.89
2023-04-28T12:06:50.592Z,3.76
2023-04-28T12:07:49.267Z,3.76
2023-04-28T12:10:09.602Z,6.27
2023-04-28T12:11:10.042Z,3.63
2023-04-28T12:12:10.128Z,3.78
2023-04-28T12:13:08.891Z,3.89
2023-04-28T12:15:28.401Z,3.83
2023-04-28T12:16:30.710Z,4.15
2023-04-28T12:18:47.644Z,3.60
2023-04-28T12:19:48.746Z,3.87
2023-04-28T12:20:48.508Z,3.78
2023-04-28T12:21:48.724Z,4.16
2023-04-28T12:24:06.262Z,5.70
2023-04-28T12:25:07.429Z,5.19
2023-04-28T12:26:06.560Z,4.59
2023-04-28T12:28:26.331Z,3.76
2023-04-28T12:29:26.192Z,4.30
2023-04-28T12:30:26.138Z,3.46
2023-04-28T12:31:25.844Z,3.68
2023-04-28T12:32:26.721Z,3.83
2023-04-28T12:33:26.623Z,3.15
2023-04-28T12:34:26.691Z,4.40
2023-04-28T12:35:26.813Z,2.85
2023-04-28T12:36:26.669Z,3.04
2023-04-28T12:37:26.800Z,2.68
2023-04-28T12:39:44.962Z,3.38
2023-04-28T12:40:44.730Z,3.96
2023-04-28T12:41:45.692Z,3.15
2023-04-28T12:42:45.869Z,2.74
2023-04-28T12:43:45.443Z,3.10
2023-04-28T12:44:45.622Z,2.72
2023-04-28T12:45:45.575Z,2.76
2023-04-28T12:46:45.875Z,3.30
2023-04-28T12:47:45.689Z,3.25
2023-04-28T12:48:45.688Z,3.83
2023-04-28T12:49:44.813Z,3.18
2023-04-28T12:50:45.687Z,3.76
2023-04-28T12:51:45.688Z,3.65
2023-04-28T12:52:45.550Z,3.54
2023-04-28T12:53:44.496Z,4.70
2023-04-28T12:54:45.528Z,4.11
2023-04-28T12:55:44.705Z,4.50
2023-04-28T12:56:45.549Z,4.14
2023-04-28T12:57:44.493Z,4.17
2023-04-28T12:58:44.597Z,4.50
2023-04-28T12:59:45.727Z,3.57
2023-04-28T13:00:45.516Z,3.47
2023-04-28T13:01:44.587Z,3.26
2023-04-28T13:02:45.670Z,3.48
2023-04-28T13:03:44.757Z,3.22
2023-04-28T13:04:45.834Z,2.96
2023-04-28T13:05:45.508Z,3.14
2023-04-28T13:06:44.492Z,3.10
2023-04-28T13:07:44.547Z,3.34
2023-04-28T13:08:44.696Z,3.38
2023-04-28T13:09:45.935Z,3.09
2023-04-28T13:12:04.023Z,3.34
2023-04-28T13:13:03.868Z,3.30
2023-04-28T13:14:05.221Z,3.35
2023-04-28T13:16:23.143Z,3.04
2023-04-28T13:17:24.201Z,4.10
2023-04-28T13:18:23.867Z,3.56
2023-04-28T13:19:23.891Z,3.30
2023-04-28T13:20:22.886Z,3.62
2023-04-28T13:21:22.779Z,3.33
2023-04-28T13:23:42.825Z,2.91
2023-04-28T13:24:43.929Z,3.47
2023-04-28T13:25:42.525Z,3.45
2023-04-28T13:26:42.430Z,4.12
2023-04-28T13:27:43.517Z,3.82
2023-04-28T13:28:43.405Z,3.64
2023-04-28T13:29:43.395Z,3.46
2023-04-28T13:30:43.453Z,4.40
2023-04-28T13:31:43.371Z,3.66
2023-04-28T13:32:42.320Z,3.43
2023-04-28T13:33:43.456Z,3.61
2023-04-28T13:34:42.250Z,3.56
2023-04-28T13:35:42.313Z,3.45
2023-04-28T13:36:43.418Z,3.41
2023-04-28T13:37:42.343Z,3.32
2023-04-28T13:38:43.461Z,2.66
2023-04-28T13:39:43.366Z,2.86
2023-04-28T13:40:43.460Z,2.30
2023-04-28T13:41:43.488Z,2.56
2023-04-28T13:42:42.869Z,2.68
2023-04-28T13:45:01.763Z,2.50
2023-04-28T13:46:02.839Z,2.31
2023-04-28T13:47:02.076Z,2.76
2023-04-28T13:48:02.586Z,2.56
2023-04-28T13:49:02.532Z,2.97
2023-04-28T13:50:02.495Z,2.62
2023-04-28T13:52:21.296Z,2.94
2023-04-28T13:53:21.374Z,1.98
2023-04-28T13:54:22.266Z,2.23
2023-04-28T13:55:21.084Z,2.42
2023-04-28T13:56:22.043Z,2.23
2023-04-28T13:57:22.006Z,2.67
2023-04-28T13:58:22.018Z,2.44
2023-04-28T13:59:21.958Z,2.34
2023-04-28T14:00:21.916Z,2.32
2023-04-28T14:01:21.957Z,2.46
2023-04-28T14:03:41.072Z,1.53
2023-04-28T14:04:42.083Z,2.45
2023-04-28T14:05:49.041Z,2.84
2023-04-28T14:06:42.002Z,2.75
2023-04-28T14:07:41.848Z,3.27
2023-04-28T14:08:40.756Z,3.44
2023-04-28T14:09:40.838Z,3.04
2023-04-28T14:12:00.372Z,2.97
2023-04-28T14:13:01.307Z,3.36
2023-04-28T14:14:00.878Z,3.09
2023-04-28T14:16:20.052Z,3.73
2023-04-28T14:17:20.510Z,3.03
2023-04-28T14:18:20.132Z,2.93
2023-04-28T14:19:20.107Z,3.48
2023-04-28T14:20:19.203Z,3.27
2023-04-28T14:21:20.220Z,3.85
2023-04-28T14:22:20.058Z,3.41
2023-04-28T14:23:20.108Z,3.80
2023-04-28T14:24:19.145Z,3.49
2023-04-28T14:26:38.276Z,3.76
2023-04-28T14:27:39.617Z,4.04
2023-04-28T14:28:38.452Z,4.05
2023-04-28T14:29:38.350Z,3.44
2023-04-28T14:30:39.181Z,4.00
2023-04-28T14:31:39.449Z,2.94
2023-04-28T14:32:39.867Z,3.47
2023-04-28T14:33:38.360Z,3.51
2023-04-28T14:34:39.383Z,3.40
2023-04-28T14:35:38.401Z,3.32
2023-04-28T14:36:39.327Z,3.52
2023-04-28T14:38:57.533Z,3.80
2023-04-28T14:39:57.757Z,3.84
2023-04-28T14:40:57.755Z,4.13
2023-04-28T14:41:57.560Z,4.71
2023-04-28T14:42:57.495Z,4.38
2023-04-28T14:43:57.452Z,4.76
2023-04-28T14:44:57.334Z,4.33
2023-04-28T14:47:16.822Z,4.07
2023-04-28T14:48:17.820Z,4.41
2023-04-28T14:49:16.571Z,3.69
2023-04-28T14:50:17.404Z,3.95
2023-04-28T14:51:17.326Z,3.75
2023-04-28T14:52:16.636Z,3.84
2023-04-28T14:53:16.255Z,4.42
2023-04-28T14:54:17.345Z,3.91
2023-04-28T14:55:17.352Z,4.46
2023-04-28T14:56:19.158Z,3.97
2023-04-28T14:57:16.357Z,4.35
2023-04-28T14:58:17.360Z,4.65
2023-04-28T14:59:16.388Z,4.25
2023-04-28T15:00:16.153Z,3.99
2023-04-28T15:01:16.308Z,4.35
2023-04-28T15:02:16.241Z,4.87
2023-04-28T15:03:17.312Z,4.29
2023-04-28T15:04:17.429Z,4.94
2023-04-28T15:05:17.245Z,4.44
2023-04-28T15:06:16.227Z,3.74
2023-04-28T15:07:16.246Z,3.36
2023-04-28T15:08:17.193Z,3.14
2023-04-28T15:09:16.236Z,4.37
2023-04-28T15:10:16.214Z,4.72
2023-04-28T15:11:17.096Z,4.78
2023-04-28T15:12:16.163Z,5.35
2023-04-28T15:13:17.167Z,5.43
2023-04-28T15:14:16.093Z,4.88
2023-04-28T15:15:17.201Z,5.53
2023-04-28T15:16:17.247Z,5.44
2023-04-28T15:17:16.104Z,4.78
2023-04-28T15:18:16.042Z,4.91
2023-04-28T15:19:16.129Z,5.07
2023-04-28T15:20:16.123Z,5.03
2023-04-28T15:21:17.070Z,4.41
2023-04-28T15:22:17.021Z,4.56
2023-04-28T15:23:17.106Z,4.79
2023-04-28T15:24:17.054Z,5.16
2023-04-28T15:25:17.019Z,5.17
2023-04-28T15:26:16.997Z,3.93
2023-04-28T15:27:17.011Z,4.27
2023-04-28T15:28:16.986Z,4.30
2023-04-28T15:29:17.091Z,4.49
